sensor_id;sensor_type;location;lat;lon;timestamp;temperature;humidity
24444;DHT22;13346;50.984;5.822;2022-10-03T00:00:11;9.20;99.90
24444;DHT22;13346;50.984;5.822;2022-10-03T00:06:00;9.10;99.90
24444;DHT22;13346;50.984;5.822;2022-10-03T00:08:50;9.20;99.90
24444;DHT22;13346;50.984;5.822;2022-10-03T00:11:31;9.20;99.90
24444;DHT22;13346;50.984;5.822;2022-10-03T00:14:03;9.30;99.90
24444;DHT22;13346;50.984;5.822;2022-10-03T00:16:42;9.30;99.90
24444;DHT22;13346;50.984;5.822;2022-10-03T00:19:19;9.30;99.90
24444;DHT22;13346;50.984;5.822;2022-10-03T00:22:00;9.30;99.90
24444;DHT22;13346;50.984;5.822;2022-10-03T00:24:40;9.40;99.90
24444;DHT22;13346;50.984;5.822;2022-10-03T00:27:17;9.40;99.90
24444;DHT22;13346;50.984;5.822;2022-10-03T00:30:00;9.50;99.90
24444;DHT22;13346;50.984;5.822;2022-10-03T00:32:36;9.40;99.90
24444;DHT22;13346;50.984;5.822;2022-10-03T00:35:23;9.40;99.90
24444;DHT22;13346;50.984;5.822;2022-10-03T00:38:10;9.40;99.90
24444;DHT22;13346;50.984;5.822;2022-10-03T00:41:03;9.30;99.90
24444;DHT22;13346;50.984;5.822;2022-10-03T00:44:02;9.30;99.90
24444;DHT22;13346;50.984;5.822;2022-10-03T00:46:56;9.20;99.90
24444;DHT22;13346;50.984;5.822;2022-10-03T00:50:10;9.20;99.90
24444;DHT22;13346;50.984;5.822;2022-10-03T00:53:02;9.20;99.90
24444;DHT22;13346;50.984;5.822;2022-10-03T00:55:45;9.20;99.90
24444;DHT22;13346;50.984;5.822;2022-10-03T01:01:30;9.20;99.90
24444;DHT22;13346;50.984;5.822;2022-10-03T01:04:13;9.20;99.90
24444;DHT22;13346;50.984;5.822;2022-10-03T01:06:45;9.30;99.90
24444;DHT22;13346;50.984;5.822;2022-10-03T01:09:22;9.30;99.90
24444;DHT22;13346;50.984;5.822;2022-10-03T01:12:03;9.30;99.90
24444;DHT22;13346;50.984;5.822;2022-10-03T01:14:52;9.20;99.90
24444;DHT22;13346;50.984;5.822;2022-10-03T01:17:33;9.20;99.90
24444;DHT22;13346;50.984;5.822;2022-10-03T01:20:14;9.20;99.90
24444;DHT22;13346;50.984;5.822;2022-10-03T01:23:01;9.20;99.90
24444;DHT22;13346;50.984;5.822;2022-10-03T01:25:40;9.20;99.90
24444;DHT22;13346;50.984;5.822;2022-10-03T01:28:34;9.20;99.90
24444;DHT22;13346;50.984;5.822;2022-10-03T01:31:28;9.20;99.90
24444;DHT22;13346;50.984;5.822;2022-10-03T01:34:02;9.30;99.90
24444;DHT22;13346;50.984;5.822;2022-10-03T01:36:36;9.20;99.90
24444;DHT22;13346;50.984;5.822;2022-10-03T01:39:09;9.10;99.90
24444;DHT22;13346;50.984;5.822;2022-10-03T01:41:47;9.10;99.90
24444;DHT22;13346;50.984;5.822;2022-10-03T01:44:22;9.20;99.90
24444;DHT22;13346;50.984;5.822;2022-10-03T01:46:53;9.20;99.90
24444;DHT22;13346;50.984;5.822;2022-10-03T01:49:28;9.10;99.90
24444;DHT22;13346;50.984;5.822;2022-10-03T01:52:05;9.10;99.90
24444;DHT22;13346;50.984;5.822;2022-10-03T01:54:40;9.10;99.90
24444;DHT22;13346;50.984;5.822;2022-10-03T01:57:16;9.10;99.90
24444;DHT22;13346;50.984;5.822;2022-10-03T01:59:53;9.00;99.90
24444;DHT22;13346;50.984;5.822;2022-10-03T02:02:29;9.00;99.90
24444;DHT22;13346;50.984;5.822;2022-10-03T02:05:02;8.90;99.90
24444;DHT22;13346;50.984;5.822;2022-10-03T02:07:39;9.00;99.90
24444;DHT22;13346;50.984;5.822;2022-10-03T02:10:19;9.00;99.90
24444;DHT22;13346;50.984;5.822;2022-10-03T02:12:56;9.00;99.90
24444;DHT22;13346;50.984;5.822;2022-10-03T02:15:30;9.00;99.90
24444;DHT22;13346;50.984;5.822;2022-10-03T02:18:07;8.90;99.90
24444;DHT22;13346;50.984;5.822;2022-10-03T02:20:44;8.90;99.90
24444;DHT22;13346;50.984;5.822;2022-10-03T02:23:36;8.90;99.90
24444;DHT22;13346;50.984;5.822;2022-10-03T02:26:26;8.90;99.90
24444;DHT22;13346;50.984;5.822;2022-10-03T02:29:08;8.90;99.90
24444;DHT22;13346;50.984;5.822;2022-10-03T02:32:13;8.90;99.90
24444;DHT22;13346;50.984;5.822;2022-10-03T02:35:08;8.90;99.90
24444;DHT22;13346;50.984;5.822;2022-10-03T02:38:04;9.00;99.90
24444;DHT22;13346;50.984;5.822;2022-10-03T02:41:11;8.90;99.90
24444;DHT22;13346;50.984;5.822;2022-10-03T02:50:27;9.20;99.90
24444;DHT22;13346;50.984;5.822;2022-10-03T02:53:44;9.20;99.90
24444;DHT22;13346;50.984;5.822;2022-10-03T02:57:04;9.20;99.90
24444;DHT22;13346;50.984;5.822;2022-10-03T03:00:11;9.10;99.90
24444;DHT22;13346;50.984;5.822;2022-10-03T03:03:04;9.10;99.90
24444;DHT22;13346;50.984;5.822;2022-10-03T03:05:58;9.10;99.90
24444;DHT22;13346;50.984;5.822;2022-10-03T03:08:53;9.10;99.90
24444;DHT22;13346;50.984;5.822;2022-10-03T03:17:33;9.20;99.90
24444;DHT22;13346;50.984;5.822;2022-10-03T03:20:31;9.20;99.90
24444;DHT22;13346;50.984;5.822;2022-10-03T03:23:22;9.10;99.90
24444;DHT22;13346;50.984;5.822;2022-10-03T03:28:55;9.10;99.90
24444;DHT22;13346;50.984;5.822;2022-10-03T03:31:31;9.10;99.90
24444;DHT22;13346;50.984;5.822;2022-10-03T03:34:05;9.00;99.90
24444;DHT22;13346;50.984;5.822;2022-10-03T03:36:39;9.10;99.90
24444;DHT22;13346;50.984;5.822;2022-10-03T03:39:23;9.00;99.90
24444;DHT22;13346;50.984;5.822;2022-10-03T03:42:03;9.00;99.90
24444;DHT22;13346;50.984;5.822;2022-10-03T03:44:50;8.90;99.90
24444;DHT22;13346;50.984;5.822;2022-10-03T03:47:41;8.90;99.90
24444;DHT22;13346;50.984;5.822;2022-10-03T03:50:31;8.90;99.90
24444;DHT22;13346;50.984;5.822;2022-10-03T03:53:24;8.90;99.90
24444;DHT22;13346;50.984;5.822;2022-10-03T03:56:10;8.90;99.90
24444;DHT22;13346;50.984;5.822;2022-10-03T03:58:45;9.00;99.90
24444;DHT22;13346;50.984;5.822;2022-10-03T04:01:33;8.90;99.90
24444;DHT22;13346;50.984;5.822;2022-10-03T04:04:11;8.90;99.90
24444;DHT22;13346;50.984;5.822;2022-10-03T04:06:52;8.90;99.90
24444;DHT22;13346;50.984;5.822;2022-10-03T04:10:03;8.80;99.90
24444;DHT22;13346;50.984;5.822;2022-10-03T04:12:48;8.70;99.90
24444;DHT22;13346;50.984;5.822;2022-10-03T04:15:39;8.70;99.90
24444;DHT22;13346;50.984;5.822;2022-10-03T04:18:39;8.80;99.90
24444;DHT22;13346;50.984;5.822;2022-10-03T04:21:35;8.80;99.90
24444;DHT22;13346;50.984;5.822;2022-10-03T04:24:25;8.80;99.90
24444;DHT22;13346;50.984;5.822;2022-10-03T04:27:07;8.80;99.90
24444;DHT22;13346;50.984;5.822;2022-10-03T04:29:45;8.90;99.90
24444;DHT22;13346;50.984;5.822;2022-10-03T04:32:40;9.00;99.90
24444;DHT22;13346;50.984;5.822;2022-10-03T04:35:24;9.10;99.90
24444;DHT22;13346;50.984;5.822;2022-10-03T04:38:04;9.10;99.90
24444;DHT22;13346;50.984;5.822;2022-10-03T04:40:44;9.10;99.90
24444;DHT22;13346;50.984;5.822;2022-10-03T04:43:23;9.10;99.90
24444;DHT22;13346;50.984;5.822;2022-10-03T04:46:14;9.10;99.90
24444;DHT22;13346;50.984;5.822;2022-10-03T04:48:50;9.20;99.90
24444;DHT22;13346;50.984;5.822;2022-10-03T04:51:26;9.20;99.90
24444;DHT22;13346;50.984;5.822;2022-10-03T04:54:00;9.20;99.90
24444;DHT22;13346;50.984;5.822;2022-10-03T04:56:43;9.20;99.90
24444;DHT22;13346;50.984;5.822;2022-10-03T04:59:43;9.20;99.90
24444;DHT22;13346;50.984;5.822;2022-10-03T05:02:27;9.20;99.90
24444;DHT22;13346;50.984;5.822;2022-10-03T05:05:20;9.10;99.90
24444;DHT22;13346;50.984;5.822;2022-10-03T05:07:57;9.10;99.90
24444;DHT22;13346;50.984;5.822;2022-10-03T05:10:46;9.10;99.90
24444;DHT22;13346;50.984;5.822;2022-10-03T05:13:18;9.00;99.90
24444;DHT22;13346;50.984;5.822;2022-10-03T05:15:55;8.90;99.90
24444;DHT22;13346;50.984;5.822;2022-10-03T05:18:31;8.90;99.90
24444;DHT22;13346;50.984;5.822;2022-10-03T05:21:07;8.90;99.90
24444;DHT22;13346;50.984;5.822;2022-10-03T05:23:46;8.80;99.90
24444;DHT22;13346;50.984;5.822;2022-10-03T05:26:22;8.80;99.90
24444;DHT22;13346;50.984;5.822;2022-10-03T05:28:56;8.80;99.90
24444;DHT22;13346;50.984;5.822;2022-10-03T05:31:34;8.80;99.90
24444;DHT22;13346;50.984;5.822;2022-10-03T05:34:12;8.90;99.90
24444;DHT22;13346;50.984;5.822;2022-10-03T05:37:10;8.90;99.90
24444;DHT22;13346;50.984;5.822;2022-10-03T05:39:44;8.90;99.90
24444;DHT22;13346;50.984;5.822;2022-10-03T05:42:38;8.90;99.90
24444;DHT22;13346;50.984;5.822;2022-10-03T05:45:21;8.90;99.90
24444;DHT22;13346;50.984;5.822;2022-10-03T05:47:52;8.90;99.90
24444;DHT22;13346;50.984;5.822;2022-10-03T05:53:56;8.80;99.90
24444;DHT22;13346;50.984;5.822;2022-10-03T05:57:02;8.80;99.90
24444;DHT22;13346;50.984;5.822;2022-10-03T05:59:50;8.70;99.90
24444;DHT22;13346;50.984;5.822;2022-10-03T06:05:37;8.90;99.90
24444;DHT22;13346;50.984;5.822;2022-10-03T06:11:19;9.00;99.90
24444;DHT22;13346;50.984;5.822;2022-10-03T06:16:59;9.00;99.90
24444;DHT22;13346;50.984;5.822;2022-10-03T06:19:44;9.00;99.90
24444;DHT22;13346;50.984;5.822;2022-10-03T06:22:34;9.00;99.90
24444;DHT22;13346;50.984;5.822;2022-10-03T06:25:30;9.00;99.90
24444;DHT22;13346;50.984;5.822;2022-10-03T06:31:52;9.20;99.90
24444;DHT22;13346;50.984;5.822;2022-10-03T06:35:01;9.40;99.90
24444;DHT22;13346;50.984;5.822;2022-10-03T06:37:57;9.60;99.90
24444;DHT22;13346;50.984;5.822;2022-10-03T06:43:47;9.70;99.90
24444;DHT22;13346;50.984;5.822;2022-10-03T06:46:47;9.80;99.90
24444;DHT22;13346;50.984;5.822;2022-10-03T06:52:34;10.00;99.90
24444;DHT22;13346;50.984;5.822;2022-10-03T06:55:42;10.10;99.90
24444;DHT22;13346;50.984;5.822;2022-10-03T07:01:53;9.90;99.90
24444;DHT22;13346;50.984;5.822;2022-10-03T07:10:54;10.00;99.90
24444;DHT22;13346;50.984;5.822;2022-10-03T07:13:58;10.10;99.90
24444;DHT22;13346;50.984;5.822;2022-10-03T07:20:08;10.30;99.90
24444;DHT22;13346;50.984;5.822;2022-10-03T07:23:08;10.20;99.90
24444;DHT22;13346;50.984;5.822;2022-10-03T07:29:11;10.10;99.90
24444;DHT22;13346;50.984;5.822;2022-10-03T07:32:10;10.20;99.90
24444;DHT22;13346;50.984;5.822;2022-10-03T07:38:15;10.60;99.90
24444;DHT22;13346;50.984;5.822;2022-10-03T07:41:20;10.80;99.90
24444;DHT22;13346;50.984;5.822;2022-10-03T07:44:10;10.80;99.90
24444;DHT22;13346;50.984;5.822;2022-10-03T07:50:21;10.90;99.90
24444;DHT22;13346;50.984;5.822;2022-10-03T07:53:04;11.20;99.90
24444;DHT22;13346;50.984;5.822;2022-10-03T07:56:04;11.30;99.90
24444;DHT22;13346;50.984;5.822;2022-10-03T07:58:52;11.30;99.90
24444;DHT22;13346;50.984;5.822;2022-10-03T08:01:43;11.40;99.90
24444;DHT22;13346;50.984;5.822;2022-10-03T08:07:36;11.60;99.90
24444;DHT22;13346;50.984;5.822;2022-10-03T08:10:20;11.60;99.90
24444;DHT22;13346;50.984;5.822;2022-10-03T08:13:16;11.70;99.90
24444;DHT22;13346;50.984;5.822;2022-10-03T08:16:02;11.60;99.90
24444;DHT22;13346;50.984;5.822;2022-10-03T08:18:56;11.70;99.90
24444;DHT22;13346;50.984;5.822;2022-10-03T08:21:32;11.90;99.90
24444;DHT22;13346;50.984;5.822;2022-10-03T08:24:27;11.80;99.90
24444;DHT22;13346;50.984;5.822;2022-10-03T08:27:16;11.90;99.90
24444;DHT22;13346;50.984;5.822;2022-10-03T08:33:17;11.90;99.90
24444;DHT22;13346;50.984;5.822;2022-10-03T08:38:52;11.90;99.90
24444;DHT22;13346;50.984;5.822;2022-10-03T08:42:02;12.10;99.90
24444;DHT22;13346;50.984;5.822;2022-10-03T08:45:07;12.10;99.90
24444;DHT22;13346;50.984;5.822;2022-10-03T08:51:01;12.20;99.90
24444;DHT22;13346;50.984;5.822;2022-10-03T08:54:01;12.40;99.90
24444;DHT22;13346;50.984;5.822;2022-10-03T08:56:49;12.50;99.90
24444;DHT22;13346;50.984;5.822;2022-10-03T09:02:57;12.70;99.90
24444;DHT22;13346;50.984;5.822;2022-10-03T09:06:17;12.70;99.90
24444;DHT22;13346;50.984;5.822;2022-10-03T09:15:09;13.00;99.90
24444;DHT22;13346;50.984;5.822;2022-10-03T09:18:00;13.40;99.90
24444;DHT22;13346;50.984;5.822;2022-10-03T09:24:02;13.50;99.90
24444;DHT22;13346;50.984;5.822;2022-10-03T09:33:14;14.60;99.90
24444;DHT22;13346;50.984;5.822;2022-10-03T09:36:11;14.90;99.90
24444;DHT22;13346;50.984;5.822;2022-10-03T09:42:22;15.20;99.90
24444;DHT22;13346;50.984;5.822;2022-10-03T09:45:14;15.50;99.90
24444;DHT22;13346;50.984;5.822;2022-10-03T09:51:22;16.20;99.90
24444;DHT22;13346;50.984;5.822;2022-10-03T10:00:26;16.70;99.90
24444;DHT22;13346;50.984;5.822;2022-10-03T10:06:08;17.00;99.90
24444;DHT22;13346;50.984;5.822;2022-10-03T10:08:57;17.40;99.90
24444;DHT22;13346;50.984;5.822;2022-10-03T10:23:50;20.00;99.90
24444;DHT22;13346;50.984;5.822;2022-10-03T10:29:58;21.00;99.90
24444;DHT22;13346;50.984;5.822;2022-10-03T10:42:32;21.20;99.90
24444;DHT22;13346;50.984;5.822;2022-10-03T10:45:23;21.70;99.90
24444;DHT22;13346;50.984;5.822;2022-10-03T10:57:28;22.50;99.90
24444;DHT22;13346;50.984;5.822;2022-10-03T11:00:20;21.00;99.90
24444;DHT22;13346;50.984;5.822;2022-10-03T11:09:30;19.00;99.90
24444;DHT22;13346;50.984;5.822;2022-10-03T11:22:05;17.80;99.90
24444;DHT22;13346;50.984;5.822;2022-10-03T11:25:05;19.40;99.90
24444;DHT22;13346;50.984;5.822;2022-10-03T11:31:24;18.40;99.90
24444;DHT22;13346;50.984;5.822;2022-10-03T11:34:32;20.40;99.90
24444;DHT22;13346;50.984;5.822;2022-10-03T11:40:09;17.70;99.90
24444;DHT22;13346;50.984;5.822;2022-10-03T11:42:51;16.80;99.90
24444;DHT22;13346;50.984;5.822;2022-10-03T11:45:25;17.90;99.90
24444;DHT22;13346;50.984;5.822;2022-10-03T11:50:50;20.90;99.90
24444;DHT22;13346;50.984;5.822;2022-10-03T11:53:30;21.90;99.90
24444;DHT22;13346;50.984;5.822;2022-10-03T11:56:14;20.70;99.90
24444;DHT22;13346;50.984;5.822;2022-10-03T11:58:55;21.50;99.90
24444;DHT22;13346;50.984;5.822;2022-10-03T12:01:34;22.40;99.90
24444;DHT22;13346;50.984;5.822;2022-10-03T12:04:10;20.00;99.90
24444;DHT22;13346;50.984;5.822;2022-10-03T12:06:58;17.60;99.90
24444;DHT22;13346;50.984;5.822;2022-10-03T12:09:59;17.70;99.90
24444;DHT22;13346;50.984;5.822;2022-10-03T12:12:33;18.70;99.90
24444;DHT22;13346;50.984;5.822;2022-10-03T12:15:16;19.90;99.90
24444;DHT22;13346;50.984;5.822;2022-10-03T12:17:49;18.90;99.90
24444;DHT22;13346;50.984;5.822;2022-10-03T12:20:24;19.80;99.90
24444;DHT22;13346;50.984;5.822;2022-10-03T12:22:58;19.40;99.90
24444;DHT22;13346;50.984;5.822;2022-10-03T12:25:31;19.50;99.90
24444;DHT22;13346;50.984;5.822;2022-10-03T12:28:08;18.40;99.90
24444;DHT22;13346;50.984;5.822;2022-10-03T12:30:46;19.10;99.90
24444;DHT22;13346;50.984;5.822;2022-10-03T12:33:28;20.70;99.90
24444;DHT22;13346;50.984;5.822;2022-10-03T12:36:05;21.70;99.90
24444;DHT22;13346;50.984;5.822;2022-10-03T12:38:55;21.70;99.90
24444;DHT22;13346;50.984;5.822;2022-10-03T12:41:43;21.00;99.90
24444;DHT22;13346;50.984;5.822;2022-10-03T12:44:21;19.80;99.90
24444;DHT22;13346;50.984;5.822;2022-10-03T12:46:57;19.00;99.90
24444;DHT22;13346;50.984;5.822;2022-10-03T12:49:42;19.60;99.90
24444;DHT22;13346;50.984;5.822;2022-10-03T12:52:20;20.50;99.90
24444;DHT22;13346;50.984;5.822;2022-10-03T12:54:58;20.80;99.90
24444;DHT22;13346;50.984;5.822;2022-10-03T12:57:47;18.80;99.90
24444;DHT22;13346;50.984;5.822;2022-10-03T13:00:21;18.10;99.90
24444;DHT22;13346;50.984;5.822;2022-10-03T13:06:15;18.80;99.90
24444;DHT22;13346;50.984;5.822;2022-10-03T13:08:57;18.50;99.90
24444;DHT22;13346;50.984;5.822;2022-10-03T13:11:34;18.00;99.90
24444;DHT22;13346;50.984;5.822;2022-10-03T13:14:17;18.50;99.90
24444;DHT22;13346;50.984;5.822;2022-10-03T13:16:57;18.10;99.90
24444;DHT22;13346;50.984;5.822;2022-10-03T13:19:30;18.80;99.90
24444;DHT22;13346;50.984;5.822;2022-10-03T13:22:11;19.00;99.90
24444;DHT22;13346;50.984;5.822;2022-10-03T13:24:52;18.30;99.90
24444;DHT22;13346;50.984;5.822;2022-10-03T13:27:33;19.20;99.90
24444;DHT22;13346;50.984;5.822;2022-10-03T13:30:05;19.90;99.90
24444;DHT22;13346;50.984;5.822;2022-10-03T13:32:41;20.00;99.90
24444;DHT22;13346;50.984;5.822;2022-10-03T13:35:21;20.10;99.90
24444;DHT22;13346;50.984;5.822;2022-10-03T13:38:18;18.60;99.90
24444;DHT22;13346;50.984;5.822;2022-10-03T13:40:55;18.30;99.90
24444;DHT22;13346;50.984;5.822;2022-10-03T13:43:29;18.80;99.90
24444;DHT22;13346;50.984;5.822;2022-10-03T13:46:01;18.70;99.90
24444;DHT22;13346;50.984;5.822;2022-10-03T13:48:32;18.70;99.90
24444;DHT22;13346;50.984;5.822;2022-10-03T13:51:02;19.90;99.90
24444;DHT22;13346;50.984;5.822;2022-10-03T13:53:57;20.80;99.90
24444;DHT22;13346;50.984;5.822;2022-10-03T13:56:51;20.80;99.90
24444;DHT22;13346;50.984;5.822;2022-10-03T13:59:48;18.90;99.90
24444;DHT22;13346;50.984;5.822;2022-10-03T14:05:47;19.20;99.90
24444;DHT22;13346;50.984;5.822;2022-10-03T14:08:29;19.10;99.90
24444;DHT22;13346;50.984;5.822;2022-10-03T14:11:21;18.00;99.90
24444;DHT22;13346;50.984;5.822;2022-10-03T14:14:05;17.50;99.90
24444;DHT22;13346;50.984;5.822;2022-10-03T14:16:39;17.50;99.90
24444;DHT22;13346;50.984;5.822;2022-10-03T14:19:14;17.90;99.90
24444;DHT22;13346;50.984;5.822;2022-10-03T14:21:59;19.00;99.90
24444;DHT22;13346;50.984;5.822;2022-10-03T14:24:44;18.20;99.90
24444;DHT22;13346;50.984;5.822;2022-10-03T14:27:33;18.10;99.90
24444;DHT22;13346;50.984;5.822;2022-10-03T14:30:05;17.60;99.90
24444;DHT22;13346;50.984;5.822;2022-10-03T14:32:46;17.60;99.90
24444;DHT22;13346;50.984;5.822;2022-10-03T14:35:23;17.40;99.90
24444;DHT22;13346;50.984;5.822;2022-10-03T14:37:56;17.70;99.90
24444;DHT22;13346;50.984;5.822;2022-10-03T14:40:28;17.70;99.90
24444;DHT22;13346;50.984;5.822;2022-10-03T14:43:20;17.90;99.90
24444;DHT22;13346;50.984;5.822;2022-10-03T14:45:52;18.40;99.90
24444;DHT22;13346;50.984;5.822;2022-10-03T14:48:24;17.70;99.90
24444;DHT22;13346;50.984;5.822;2022-10-03T14:50:57;17.50;99.90
24444;DHT22;13346;50.984;5.822;2022-10-03T14:53:30;17.60;99.90
24444;DHT22;13346;50.984;5.822;2022-10-03T14:56:00;17.70;99.90
24444;DHT22;13346;50.984;5.822;2022-10-03T14:58:33;17.00;99.90
24444;DHT22;13346;50.984;5.822;2022-10-03T15:01:06;16.90;99.90
24444;DHT22;13346;50.984;5.822;2022-10-03T15:03:39;16.90;99.90
24444;DHT22;13346;50.984;5.822;2022-10-03T15:06:21;16.90;99.90
24444;DHT22;13346;50.984;5.822;2022-10-03T15:08:59;17.00;99.90
24444;DHT22;13346;50.984;5.822;2022-10-03T15:11:30;17.10;99.90
24444;DHT22;13346;50.984;5.822;2022-10-03T15:14:00;17.10;99.90
24444;DHT22;13346;50.984;5.822;2022-10-03T15:16:33;17.50;99.90
24444;DHT22;13346;50.984;5.822;2022-10-03T15:19:08;17.60;99.90
24444;DHT22;13346;50.984;5.822;2022-10-03T15:21:36;17.70;99.90
24444;DHT22;13346;50.984;5.822;2022-10-03T15:24:09;17.90;99.90
24444;DHT22;13346;50.984;5.822;2022-10-03T15:26:40;17.90;99.90
24444;DHT22;13346;50.984;5.822;2022-10-03T15:29:14;17.70;99.90
24444;DHT22;13346;50.984;5.822;2022-10-03T15:31:45;17.60;99.90
24444;DHT22;13346;50.984;5.822;2022-10-03T15:34:17;17.50;99.90
24444;DHT22;13346;50.984;5.822;2022-10-03T15:36:48;17.30;99.90
24444;DHT22;13346;50.984;5.822;2022-10-03T15:39:20;17.20;99.90
24444;DHT22;13346;50.984;5.822;2022-10-03T15:41:53;17.10;99.90
24444;DHT22;13346;50.984;5.822;2022-10-03T15:44:24;17.10;99.90
24444;DHT22;13346;50.984;5.822;2022-10-03T15:47:02;17.10;99.90
24444;DHT22;13346;50.984;5.822;2022-10-03T15:49:34;17.00;99.90
24444;DHT22;13346;50.984;5.822;2022-10-03T15:52:13;17.00;99.90
24444;DHT22;13346;50.984;5.822;2022-10-03T15:54:45;17.00;99.90
24444;DHT22;13346;50.984;5.822;2022-10-03T15:57:19;16.80;99.90
24444;DHT22;13346;50.984;5.822;2022-10-03T15:59:51;16.80;99.90
24444;DHT22;13346;50.984;5.822;2022-10-03T16:02:25;16.70;99.90
24444;DHT22;13346;50.984;5.822;2022-10-03T16:04:55;16.60;99.90
24444;DHT22;13346;50.984;5.822;2022-10-03T16:07:28;16.60;99.90
24444;DHT22;13346;50.984;5.822;2022-10-03T16:10:08;16.60;99.90
24444;DHT22;13346;50.984;5.822;2022-10-03T16:12:49;16.50;99.90
24444;DHT22;13346;50.984;5.822;2022-10-03T16:15:22;16.50;99.90
24444;DHT22;13346;50.984;5.822;2022-10-03T16:17:55;16.40;99.90
24444;DHT22;13346;50.984;5.822;2022-10-03T16:20:30;16.40;99.90
24444;DHT22;13346;50.984;5.822;2022-10-03T16:23:09;16.40;99.90
24444;DHT22;13346;50.984;5.822;2022-10-03T16:25:43;16.40;99.90
24444;DHT22;13346;50.984;5.822;2022-10-03T16:28:16;16.50;99.90
24444;DHT22;13346;50.984;5.822;2022-10-03T16:30:51;16.50;99.90
24444;DHT22;13346;50.984;5.822;2022-10-03T16:33:24;16.40;99.90
24444;DHT22;13346;50.984;5.822;2022-10-03T16:35:54;16.30;99.90
24444;DHT22;13346;50.984;5.822;2022-10-03T16:38:25;16.20;99.90
24444;DHT22;13346;50.984;5.822;2022-10-03T16:40:55;16.10;99.90
24444;DHT22;13346;50.984;5.822;2022-10-03T16:43:24;16.00;99.90
24444;DHT22;13346;50.984;5.822;2022-10-03T16:45:53;15.90;99.90
24444;DHT22;13346;50.984;5.822;2022-10-03T16:48:24;15.80;99.90
24444;DHT22;13346;50.984;5.822;2022-10-03T16:51:17;15.70;99.90
24444;DHT22;13346;50.984;5.822;2022-10-03T16:53:47;15.50;99.90
24444;DHT22;13346;50.984;5.822;2022-10-03T16:56:17;15.30;99.90
24444;DHT22;13346;50.984;5.822;2022-10-03T16:58:50;15.00;99.90
24444;DHT22;13346;50.984;5.822;2022-10-03T17:01:26;14.80;99.90
24444;DHT22;13346;50.984;5.822;2022-10-03T17:04:10;14.50;99.90
24444;DHT22;13346;50.984;5.822;2022-10-03T17:06:44;14.20;99.90
24444;DHT22;13346;50.984;5.822;2022-10-03T17:09:20;13.90;99.90
24444;DHT22;13346;50.984;5.822;2022-10-03T17:11:53;13.60;99.90
24444;DHT22;13346;50.984;5.822;2022-10-03T17:14:22;13.40;99.90
24444;DHT22;13346;50.984;5.822;2022-10-03T17:16:56;13.10;99.90
24444;DHT22;13346;50.984;5.822;2022-10-03T17:19:33;13.00;99.90
24444;DHT22;13346;50.984;5.822;2022-10-03T17:22:11;12.90;99.90
24444;DHT22;13346;50.984;5.822;2022-10-03T17:24:47;12.60;99.90
24444;DHT22;13346;50.984;5.822;2022-10-03T17:27:24;12.40;99.90
24444;DHT22;13346;50.984;5.822;2022-10-03T17:29:57;12.40;99.90
24444;DHT22;13346;50.984;5.822;2022-10-03T17:32:32;12.50;99.90
24444;DHT22;13346;50.984;5.822;2022-10-03T17:35:09;12.50;99.90
24444;DHT22;13346;50.984;5.822;2022-10-03T17:37:58;12.50;99.90
24444;DHT22;13346;50.984;5.822;2022-10-03T17:40:41;12.40;99.90
24444;DHT22;13346;50.984;5.822;2022-10-03T17:43:20;12.30;99.90
24444;DHT22;13346;50.984;5.822;2022-10-03T17:45:57;12.00;99.90
24444;DHT22;13346;50.984;5.822;2022-10-03T17:48:34;11.80;99.90
24444;DHT22;13346;50.984;5.822;2022-10-03T17:54:04;11.80;99.90
24444;DHT22;13346;50.984;5.822;2022-10-03T17:56:40;11.70;99.90
24444;DHT22;13346;50.984;5.822;2022-10-03T17:59:13;11.60;99.90
24444;DHT22;13346;50.984;5.822;2022-10-03T18:01:42;11.50;99.90
24444;DHT22;13346;50.984;5.822;2022-10-03T18:04:16;11.60;99.90
24444;DHT22;13346;50.984;5.822;2022-10-03T18:06:48;11.60;99.90
24444;DHT22;13346;50.984;5.822;2022-10-03T18:09:36;11.50;99.90
24444;DHT22;13346;50.984;5.822;2022-10-03T18:12:15;11.40;99.90
24444;DHT22;13346;50.984;5.822;2022-10-03T18:18:00;11.50;99.90
24444;DHT22;13346;50.984;5.822;2022-10-03T18:20:41;11.70;99.90
24444;DHT22;13346;50.984;5.822;2022-10-03T18:23:19;11.90;99.90
24444;DHT22;13346;50.984;5.822;2022-10-03T18:25:53;11.70;99.90
24444;DHT22;13346;50.984;5.822;2022-10-03T18:28:29;11.60;99.90
24444;DHT22;13346;50.984;5.822;2022-10-03T18:31:01;11.80;99.90
24444;DHT22;13346;50.984;5.822;2022-10-03T18:33:33;11.90;99.90
24444;DHT22;13346;50.984;5.822;2022-10-03T18:36:08;11.80;99.90
24444;DHT22;13346;50.984;5.822;2022-10-03T18:38:39;11.80;99.90
24444;DHT22;13346;50.984;5.822;2022-10-03T18:41:12;11.70;99.90
24444;DHT22;13346;50.984;5.822;2022-10-03T18:43:44;11.70;99.90
24444;DHT22;13346;50.984;5.822;2022-10-03T18:46:17;11.70;99.90
24444;DHT22;13346;50.984;5.822;2022-10-03T18:48:57;11.70;99.90
24444;DHT22;13346;50.984;5.822;2022-10-03T18:51:31;11.60;99.90
24444;DHT22;13346;50.984;5.822;2022-10-03T18:54:06;11.40;99.90
24444;DHT22;13346;50.984;5.822;2022-10-03T18:56:41;11.40;99.90
24444;DHT22;13346;50.984;5.822;2022-10-03T18:59:14;11.40;99.90
24444;DHT22;13346;50.984;5.822;2022-10-03T19:01:48;11.30;99.90
24444;DHT22;13346;50.984;5.822;2022-10-03T19:04:32;11.10;99.90
24444;DHT22;13346;50.984;5.822;2022-10-03T19:07:03;11.10;99.90
24444;DHT22;13346;50.984;5.822;2022-10-03T19:09:42;11.00;99.90
24444;DHT22;13346;50.984;5.822;2022-10-03T19:12:15;11.10;99.90
24444;DHT22;13346;50.984;5.822;2022-10-03T19:14:55;11.00;99.90
24444;DHT22;13346;50.984;5.822;2022-10-03T19:17:32;10.80;99.90
24444;DHT22;13346;50.984;5.822;2022-10-03T19:20:16;11.00;99.90
24444;DHT22;13346;50.984;5.822;2022-10-03T19:22:53;11.00;99.90
24444;DHT22;13346;50.984;5.822;2022-10-03T19:25:24;11.00;99.90
24444;DHT22;13346;50.984;5.822;2022-10-03T19:27:54;11.00;99.90
24444;DHT22;13346;50.984;5.822;2022-10-03T19:30:26;10.90;99.90
24444;DHT22;13346;50.984;5.822;2022-10-03T19:32:57;11.00;99.90
24444;DHT22;13346;50.984;5.822;2022-10-03T19:35:26;11.00;99.90
24444;DHT22;13346;50.984;5.822;2022-10-03T19:37:57;10.70;99.90
24444;DHT22;13346;50.984;5.822;2022-10-03T19:40:42;10.60;99.90
24444;DHT22;13346;50.984;5.822;2022-10-03T19:43:34;10.60;99.90
24444;DHT22;13346;50.984;5.822;2022-10-03T19:46:17;10.80;99.90
24444;DHT22;13346;50.984;5.822;2022-10-03T19:49:00;10.70;99.90
24444;DHT22;13346;50.984;5.822;2022-10-03T19:51:28;10.60;99.90
24444;DHT22;13346;50.984;5.822;2022-10-03T19:53:56;10.50;99.90
24444;DHT22;13346;50.984;5.822;2022-10-03T19:56:30;10.40;99.90
24444;DHT22;13346;50.984;5.822;2022-10-03T19:59:01;10.50;99.90
24444;DHT22;13346;50.984;5.822;2022-10-03T20:01:40;10.60;99.90
24444;DHT22;13346;50.984;5.822;2022-10-03T20:04:08;10.40;99.90
24444;DHT22;13346;50.984;5.822;2022-10-03T20:06:38;10.30;99.90
24444;DHT22;13346;50.984;5.822;2022-10-03T20:09:18;10.40;99.90
24444;DHT22;13346;50.984;5.822;2022-10-03T20:11:49;10.10;99.90